KTSP/TSP METAR and TAF weather

Enter ICAO airport designator
Station Type Date Time Source
KTSP METAR 2020/09/30 15:15 UTC NOAA

KTSP 301515Z AUTO 05003KT 7SM CLR 17/00 A3028 RMK AO2


Station Type Date Time Source
KTSP Decoded METAR 2020/09/30 15:15 UTC NOAA

Station name not available
Sep 30, 2020 - 11:15 AM EDT / 2020.09.30 1515 UTC
Wind: from the NE (050 degrees) at 3 MPH (3 KT):0
Visibility: 7 mile(s):0
Sky conditions: clear
Temperature: 62 F (17 C)
Dew Point: 32 F (0 C)
Relative Humidity: 31%
Pressure (altimeter): 30.28 in. Hg (1025 hPa)
ob: KTSP 301515Z AUTO 05003KT 7SM CLR 17/00 A3028 RMK AO2
cycle: 15

Station Type Date Time Source
KTSP TAF UTC NOAA

Error!

Example: see airport list